createdAt,value
2022-11-28T00:01:30.148Z,101184.38
2022-11-28T00:03:57.748Z,101167.56
2022-11-28T00:06:26.162Z,101171.22
2022-11-28T00:08:54.305Z,101164.56
2022-11-28T00:11:21.952Z,101147.63
2022-11-28T00:13:49.432Z,101134.53
2022-11-28T00:16:21.750Z,101149.38
2022-11-28T00:18:50.484Z,101166.44
2022-11-28T00:21:18.234Z,101143.53
2022-11-28T00:23:47.650Z,101156.78
2022-11-28T00:26:22.788Z,101144.91
2022-11-28T00:28:50.220Z,101152.34
2022-11-28T00:31:24.813Z,101151.88
2022-11-28T00:33:52.700Z,101148.84
2022-11-28T00:36:20.949Z,101131.94
2022-11-28T00:38:49.275Z,101128.94
2022-11-28T00:41:20.205Z,101140.34
2022-11-28T00:43:48.750Z,101129.81
2022-11-28T00:46:18.017Z,101123.84
2022-11-28T00:48:45.666Z,101123.69
2022-11-28T00:51:28.144Z,101129.25
2022-11-28T00:53:57.672Z,101117.59
2022-11-28T00:56:34.887Z,101098.56
2022-11-28T00:59:03.133Z,101107.19
2022-11-28T01:01:34.331Z,101098.47
2022-11-28T01:04:05.912Z,101101.63
2022-11-28T01:06:39.127Z,101105.53
2022-11-28T01:09:12.185Z,101104.59
2022-11-28T01:11:40.819Z,101107.03
2022-11-28T01:14:09.242Z,101116.38
2022-11-28T01:16:36.632Z,101102.75
2022-11-28T01:19:04.368Z,101102.75
2022-11-28T01:21:31.854Z,101149.34
2022-11-28T01:24:00.085Z,101149.50
2022-11-28T01:26:29.316Z,101138.16
2022-11-28T01:28:57.413Z,101149.09
2022-11-28T01:31:28.626Z,101144.97
2022-11-28T01:33:57.379Z,101154.13
2022-11-28T01:36:26.369Z,101149.81
2022-11-28T01:38:55.513Z,101133.00
2022-11-28T01:41:26.189Z,101139.72
2022-11-28T01:44:25.806Z,101134.25
2022-11-28T01:46:53.448Z,101130.22
2022-11-28T01:49:30.211Z,101129.41
2022-11-28T01:52:05.796Z,101130.31
2022-11-28T01:54:34.690Z,101131.94
2022-11-28T01:57:18.945Z,101128.63
2022-11-28T02:00:14.848Z,101125.69
2022-11-28T02:02:53.421Z,101130.66
2022-11-28T02:05:22.048Z,101137.03
2022-11-28T02:07:51.831Z,101135.44
2022-11-28T02:10:25.009Z,101134.56
2022-11-28T02:13:24.390Z,101127.19
2022-11-28T02:16:09.995Z,101121.78
2022-11-28T02:18:54.650Z,101131.56
2022-11-28T02:21:44.799Z,101143.53
2022-11-28T02:24:52.782Z,101128.13
2022-11-28T02:27:39.130Z,101142.88
2022-11-28T02:30:20.071Z,101149.06
2022-11-28T02:32:46.913Z,101144.31
2022-11-28T02:35:32.481Z,101132.81
2022-11-28T02:38:13.244Z,101129.41
2022-11-28T02:40:55.345Z,101129.41
2022-11-28T02:43:31.746Z,101136.78
2022-11-28T02:46:10.417Z,101135.69
2022-11-28T02:48:46.580Z,101132.72
2022-11-28T02:51:19.735Z,101140.50
2022-11-28T02:53:48.443Z,101158.41
2022-11-28T02:56:15.491Z,101145.88
2022-11-28T02:58:42.812Z,101140.34
2022-11-28T03:01:32.602Z,101136.28
2022-11-28T03:04:05.446Z,101131.69
2022-11-28T03:06:51.014Z,101107.22
2022-11-28T03:09:36.025Z,101096.63
2022-11-28T03:12:33.055Z,101087.78
2022-11-28T03:15:07.491Z,101078.75
2022-11-28T03:17:41.722Z,101067.22
2022-11-28T03:20:36.600Z,101067.72
2022-11-28T03:23:03.278Z,101059.09
2022-11-28T03:25:36.069Z,101054.56
2022-11-28T03:28:23.231Z,101050.38
2022-11-28T03:31:01.008Z,101030.94
2022-11-28T03:33:33.048Z,101042.66
2022-11-28T03:36:22.258Z,101046.25
2022-11-28T03:38:54.638Z,101053.50
2022-11-28T03:41:27.635Z,101041.19
2022-11-28T03:43:57.879Z,101048.56
2022-11-28T03:46:34.050Z,101053.56
2022-11-28T03:49:02.647Z,101036.69
2022-11-28T03:51:46.407Z,101054.19
2022-11-28T03:54:21.592Z,101044.50
2022-11-28T03:57:08.056Z,101043.56
2022-11-28T03:59:36.344Z,101038.75
2022-11-28T04:02:45.763Z,101034.94
2022-11-28T04:05:12.511Z,101043.03
2022-11-28T04:07:47.771Z,101037.31
2022-11-28T04:10:39.549Z,101042.06
2022-11-28T04:13:23.010Z,101031.81
2022-11-28T04:16:13.462Z,101020.25
2022-11-28T04:19:02.981Z,101006.75
2022-11-28T04:21:41.203Z,101005.66
2022-11-28T04:24:15.203Z,101023.19
2022-11-28T04:26:47.969Z,101024.78
2022-11-28T04:29:19.122Z,101026.59
2022-11-28T04:31:49.106Z,101026.59
2022-11-28T04:34:20.392Z,101031.97
2022-11-28T04:36:49.985Z,101034.69
2022-11-28T04:39:21.383Z,101035.41
2022-11-28T04:41:55.890Z,101043.66
2022-11-28T04:44:33.385Z,101042.06
2022-11-28T04:47:00.505Z,101047.31
2022-11-28T04:49:30.119Z,101054.66
2022-11-28T04:52:07.234Z,101054.50
2022-11-28T04:54:45.174Z,101045.25
2022-11-28T04:57:19.214Z,101059.91
2022-11-28T04:59:47.484Z,101066.25
2022-11-28T05:02:16.581Z,101060.16
2022-11-28T05:04:44.979Z,101060.06
2022-11-28T05:07:12.328Z,101068.31
2022-11-28T05:09:39.698Z,101080.34
2022-11-28T05:12:06.803Z,101083.69
2022-11-28T05:14:33.603Z,101084.63
2022-11-28T05:17:00.425Z,101093.53
2022-11-28T05:19:27.392Z,101093.56
2022-11-28T05:21:54.273Z,101093.31
2022-11-28T05:24:22.457Z,101097.97
2022-11-28T05:26:49.602Z,101094.63
2022-11-28T05:29:17.338Z,101090.34
2022-11-28T05:31:44.191Z,101089.44
2022-11-28T05:34:10.960Z,101105.31
2022-11-28T05:36:37.767Z,101114.06
2022-11-28T05:39:04.686Z,101117.19
2022-11-28T05:41:32.609Z,101130.41
2022-11-28T05:44:00.311Z,101130.09
2022-11-28T05:46:28.379Z,101122.72
2022-11-28T05:48:55.453Z,101134.44
2022-11-28T05:51:22.655Z,101130.97
2022-11-28T05:53:49.558Z,101126.22
2022-11-28T05:56:18.262Z,101141.53
2022-11-28T05:58:45.551Z,101135.25
2022-11-28T06:01:19.916Z,101151.59
2022-11-28T06:03:47.467Z,101139.06
2022-11-28T06:06:22.102Z,101146.28
2022-11-28T06:08:51.593Z,101157.13
2022-11-28T06:11:20.567Z,101159.53
2022-11-28T06:13:48.650Z,101161.13
2022-11-28T06:16:21.941Z,101155.81
2022-11-28T06:18:53.017Z,101163.66
2022-11-28T06:21:20.478Z,101167.47
2022-11-28T06:23:47.444Z,101171.09
2022-11-28T06:26:17.104Z,101179.53
2022-11-28T06:28:44.650Z,101190.06
2022-11-28T06:31:16.762Z,101172.31
2022-11-28T06:33:47.329Z,101189.19
2022-11-28T06:36:15.495Z,101197.53
2022-11-28T06:38:42.515Z,101196.72
2022-11-28T06:41:13.049Z,101190.13
2022-11-28T06:43:40.594Z,101205.81
2022-11-28T06:46:17.068Z,101217.50
2022-11-28T06:48:44.946Z,101228.53
2022-11-28T06:51:12.037Z,101230.59
2022-11-28T06:53:39.666Z,101232.44
2022-11-28T06:56:14.210Z,101234.88
2022-11-28T06:58:42.329Z,101239.56
2022-11-28T07:01:18.253Z,101227.09
2022-11-28T07:03:45.828Z,101235.34
2022-11-28T07:06:14.646Z,101224.34
2022-11-28T07:08:42.135Z,101230.88
2022-11-28T07:11:20.796Z,101222.88
2022-11-28T07:13:49.872Z,101218.44
2022-11-28T07:16:21.202Z,101225.00
2022-11-28T07:18:48.934Z,101227.53
2022-11-28T07:21:16.130Z,101223.94
2022-11-28T07:23:44.117Z,101231.84
2022-11-28T07:26:13.237Z,101224.78
2022-11-28T07:28:41.082Z,101210.75
2022-11-28T07:31:10.952Z,101198.31
2022-11-28T07:33:39.375Z,101177.41
2022-11-28T07:36:10.687Z,101168.44
2022-11-28T07:38:37.687Z,101195.31
2022-11-28T07:41:11.966Z,101228.53
2022-11-28T07:43:39.666Z,101230.38
2022-11-28T07:46:09.378Z,101237.06
2022-11-28T07:48:36.541Z,101235.94
2022-11-28T07:51:10.060Z,101241.53
2022-11-28T07:53:37.896Z,101232.94
2022-11-28T07:56:06.930Z,101227.09
2022-11-28T07:58:35.393Z,101227.19
2022-11-28T08:01:16.527Z,101234.69
2022-11-28T08:03:44.906Z,101226.94
2022-11-28T08:06:12.729Z,101221.56
2022-11-28T08:08:40.538Z,101218.00
2022-11-28T08:11:09.530Z,101219.75
2022-11-28T08:13:38.269Z,101227.09
2022-11-28T08:16:12.894Z,101225.84
2022-11-28T08:18:40.406Z,101222.06
2022-11-28T08:21:10.590Z,101225.69
2022-11-28T08:23:39.798Z,101233.56
2022-11-28T08:26:10.670Z,101236.19
2022-11-28T08:28:38.642Z,101249.03
2022-11-28T08:31:30.981Z,101254.78
2022-11-28T08:34:00.623Z,101244.63
2022-11-28T08:36:29.798Z,101264.25
2022-11-28T08:41:47.381Z,101265.66
2022-11-28T08:44:15.087Z,101275.41
2022-11-28T08:46:42.351Z,101274.84
2022-11-28T08:49:09.934Z,101268.78
2022-11-28T08:51:37.356Z,101267.75
2022-11-28T08:54:05.275Z,101269.19
2022-11-28T08:56:32.451Z,101277.38
2022-11-28T08:59:00.376Z,101272.84
2022-11-28T09:01:28.415Z,101283.59
2022-11-28T09:03:56.577Z,101291.44
2022-11-28T09:06:24.412Z,101281.84
2022-11-28T09:08:52.557Z,101285.91
2022-11-28T09:11:22.047Z,101296.13
2022-11-28T09:13:50.293Z,101293.47
2022-11-28T09:16:18.459Z,101290.50
2022-11-28T09:18:46.163Z,101281.75
2022-11-28T09:21:15.591Z,101284.25
2022-11-28T09:23:45.378Z,101280.59
2022-11-28T09:26:27.584Z,101290.44
2022-11-28T09:28:55.101Z,101289.13
2022-11-28T09:31:23.087Z,101288.44
2022-11-28T09:33:50.648Z,101281.69
2022-11-28T09:36:21.176Z,101284.16
2022-11-28T09:38:48.920Z,101286.03
2022-11-28T09:41:22.188Z,101285.75
2022-11-28T09:43:54.906Z,101292.88
2022-11-28T09:46:29.771Z,101304.38
2022-11-28T09:49:02.938Z,101299.81
2022-11-28T09:51:52.493Z,101303.28
2022-11-28T09:54:41.591Z,101317.47
2022-11-28T09:57:33.387Z,101313.97
2022-11-28T10:00:01.428Z,101311.94
2022-11-28T10:02:44.192Z,101306.25
2022-11-28T10:05:23.540Z,101308.44
2022-11-28T10:08:38.598Z,101313.69
2022-11-28T10:11:28.906Z,101310.31
2022-11-28T10:14:33.016Z,101311.88
2022-11-28T10:17:24.972Z,101310.41
2022-11-28T10:19:55.531Z,101302.53
2022-11-28T10:22:45.558Z,101308.66
2022-11-28T10:25:22.823Z,101312.38
2022-11-28T10:27:50.974Z,101311.13
2022-11-28T10:30:33.814Z,101313.81
2022-11-28T10:33:15.236Z,101307.78
2022-11-28T10:35:48.756Z,101320.97
2022-11-28T10:38:17.254Z,101309.53
2022-11-28T10:40:56.113Z,101303.72
2022-11-28T10:43:23.009Z,101316.91
2022-11-28T10:46:09.729Z,101311.56
2022-11-28T10:48:41.248Z,101300.72
2022-11-28T10:51:43.391Z,101301.28
2022-11-28T10:54:43.322Z,101299.91
2022-11-28T10:58:00.648Z,101307.56
2022-11-28T11:00:27.743Z,101294.13
2022-11-28T11:02:57.082Z,101305.03
2022-11-28T11:05:36.000Z,101300.03
2022-11-28T11:08:10.428Z,101300.88
2022-11-28T11:10:49.628Z,101318.22
2022-11-28T11:13:28.977Z,101303.91
2022-11-28T11:16:03.435Z,101305.66
2022-11-28T11:18:39.067Z,101315.22
2022-11-28T11:21:23.173Z,101317.41
2022-11-28T11:24:12.185Z,101302.75
2022-11-28T11:26:42.368Z,101308.81
2022-11-28T11:29:28.506Z,101305.81
2022-11-28T11:31:58.462Z,101309.66
2022-11-28T11:34:27.722Z,101317.56
2022-11-28T11:37:31.225Z,101313.69
2022-11-28T11:40:00.109Z,101310.13
2022-11-28T11:42:29.999Z,101315.56
2022-11-28T11:45:18.246Z,101313.16
2022-11-28T11:47:45.798Z,101319.38
2022-11-28T11:50:20.831Z,101324.31
2022-11-28T11:53:03.618Z,101317.41
2022-11-28T11:55:33.314Z,101318.50
2022-11-28T11:58:05.901Z,101321.88
2022-11-28T12:00:38.650Z,101320.41
2022-11-28T12:03:27.255Z,101320.59
2022-11-28T12:06:14.113Z,101323.75
2022-11-28T12:09:07.723Z,101327.97
2022-11-28T12:11:46.585Z,101317.91
2022-11-28T12:14:37.340Z,101322.72
2022-11-28T12:17:47.971Z,101330.25
2022-11-28T12:20:30.662Z,101331.50
2022-11-28T12:23:25.822Z,101326.38
2022-11-28T12:26:10.377Z,101331.19
2022-11-28T12:29:01.894Z,101336.94
2022-11-28T12:31:38.105Z,101349.56
2022-11-28T12:34:26.674Z,101338.91
2022-11-28T12:37:18.560Z,101351.22
2022-11-28T12:39:55.266Z,101354.69
2022-11-28T12:42:59.406Z,101353.34
2022-11-28T12:45:32.586Z,101360.84
2022-11-28T12:48:34.841Z,101362.69
2022-11-28T12:51:42.663Z,101361.00
2022-11-28T12:54:35.781Z,101358.03
2022-11-28T12:57:25.816Z,101362.63
2022-11-28T13:00:01.062Z,101368.88
2022-11-28T13:02:49.952Z,101361.41
2022-11-28T13:05:25.851Z,101361.06
2022-11-28T13:08:11.678Z,101366.28
2022-11-28T13:10:55.398Z,101365.34
2022-11-28T13:13:53.514Z,101350.94
2022-11-28T13:16:30.788Z,101357.47
2022-11-28T13:18:57.551Z,101348.66
2022-11-28T13:21:35.361Z,101350.69
2022-11-28T13:24:29.434Z,101333.81
2022-11-28T13:27:02.173Z,101335.78
2022-11-28T13:29:50.206Z,101332.19
2022-11-28T13:32:56.448Z,101320.03
2022-11-28T13:35:23.778Z,101315.50
2022-11-28T13:40:59.933Z,101300.13
2022-11-28T13:43:41.908Z,101292.00
2022-11-28T13:46:09.929Z,101283.03
2022-11-28T13:51:30.942Z,101275.69
2022-11-28T13:54:22.922Z,101270.38
2022-11-28T13:57:22.499Z,101270.38
2022-11-28T14:00:12.792Z,101258.13
2022-11-28T14:02:42.448Z,101266.81
2022-11-28T14:05:54.392Z,101264.44
2022-11-28T14:08:50.028Z,101261.47
2022-11-28T14:11:27.593Z,101256.38
2022-11-28T14:14:04.071Z,101250.03
2022-11-28T14:16:51.698Z,101242.63
2022-11-28T14:19:26.954Z,101247.59
2022-11-28T14:22:02.566Z,101237.50
2022-11-28T14:24:54.348Z,101228.34
2022-11-28T14:27:32.496Z,101223.09
2022-11-28T14:30:00.645Z,101230.75
2022-11-28T14:32:43.380Z,101222.53
2022-11-28T14:35:54.445Z,101226.75
2022-11-28T14:38:30.345Z,101223.34
2022-11-28T14:40:57.207Z,101219.72
2022-11-28T14:43:26.839Z,101219.72
2022-11-28T14:46:20.757Z,101213.47
2022-11-28T14:49:04.613Z,101206.78
2022-11-28T14:52:00.142Z,101205.38
2022-11-28T14:54:42.481Z,101206.09
2022-11-28T14:57:23.614Z,101197.31
2022-11-28T14:59:51.703Z,101200.19
2022-11-28T15:02:46.456Z,101194.53
2022-11-28T15:05:36.711Z,101189.13
2022-11-28T15:08:28.127Z,101190.22
2022-11-28T15:11:36.842Z,101182.88
2022-11-28T15:14:22.569Z,101188.41
2022-11-28T15:16:53.326Z,101185.72
2022-11-28T15:19:20.204Z,101178.19
2022-11-28T15:21:50.836Z,101178.19
2022-11-28T15:24:28.508Z,101177.25
2022-11-28T15:26:58.189Z,101177.66
2022-11-28T15:29:29.599Z,101178.06
2022-11-28T15:31:58.169Z,101174.66
2022-11-28T15:34:28.384Z,101168.13
2022-11-28T15:36:58.092Z,101167.94
2022-11-28T15:39:35.089Z,101176.69
2022-11-28T15:42:05.825Z,101164.84
2022-11-28T15:44:33.182Z,101166.78
2022-11-28T15:47:00.492Z,101161.34
2022-11-28T15:49:31.757Z,101154.13
2022-11-28T15:52:02.346Z,101147.78
2022-11-28T15:54:32.031Z,101148.22
2022-11-28T15:57:00.517Z,101150.84
2022-11-28T15:59:27.885Z,101154.63
2022-11-28T16:02:00.137Z,101150.09
2022-11-28T16:04:28.472Z,101149.97
2022-11-28T16:06:58.154Z,101147.34
2022-11-28T16:09:29.569Z,101145.66
2022-11-28T16:11:56.595Z,101135.69
2022-11-28T16:14:36.553Z,101135.56
2022-11-28T16:17:12.575Z,101129.34
2022-11-28T16:19:39.822Z,101134.97
2022-11-28T16:22:11.439Z,101122.22
2022-11-28T16:24:55.524Z,101117.59
2022-11-28T16:27:28.115Z,101120.09
2022-11-28T16:29:55.363Z,101114.91
2022-11-28T16:32:31.861Z,101112.41
2022-11-28T16:35:02.504Z,101117.13
2022-11-28T16:37:31.559Z,101115.66
2022-11-28T16:40:14.426Z,101103.81
2022-11-28T16:42:41.740Z,101098.38
2022-11-28T16:45:12.056Z,101096.16
2022-11-28T16:47:39.948Z,101106.69
2022-11-28T16:50:15.412Z,101101.41
2022-11-28T16:52:57.918Z,101101.06
2022-11-28T16:55:31.720Z,101102.84
2022-11-28T16:58:12.805Z,101100.03
2022-11-28T17:00:44.285Z,101095.00
2022-11-28T17:03:44.512Z,101099.16
2022-11-28T17:06:34.383Z,101107.44
2022-11-28T17:09:09.237Z,101102.94
2022-11-28T17:11:38.843Z,101095.66
2022-11-28T17:14:13.241Z,101096.81
2022-11-28T17:16:42.548Z,101093.13
2022-11-28T17:19:10.010Z,101088.41
2022-11-28T17:21:42.181Z,101083.00
2022-11-28T17:24:19.567Z,101080.81
2022-11-28T17:26:47.234Z,101072.72
2022-11-28T17:29:15.963Z,101075.41
2022-11-28T17:31:46.845Z,101071.69
2022-11-28T17:34:23.568Z,101066.47
2022-11-28T17:36:51.638Z,101060.13
2022-11-28T17:39:20.368Z,101060.28
2022-11-28T17:41:52.324Z,101056.63
2022-11-28T17:47:17.575Z,101054.03
2022-11-28T17:49:48.543Z,101048.78
2022-11-28T17:55:22.649Z,101043.41
2022-11-28T18:00:35.942Z,101037.94
2022-11-28T18:03:05.574Z,101036.97
2022-11-28T18:05:37.680Z,101038.03
2022-11-28T18:08:09.034Z,101023.66
2022-11-28T18:10:40.303Z,101021.44
2022-11-28T18:13:15.254Z,101015.25
2022-11-28T18:15:47.295Z,101021.38
2022-11-28T18:18:15.277Z,101011.75
2022-11-28T18:20:46.197Z,101002.88
2022-11-28T18:23:14.249Z,101009.50
2022-11-28T18:28:38.337Z,100996.75
2022-11-28T18:31:29.630Z,100990.34
2022-11-28T18:34:03.908Z,100982.28
2022-11-28T18:36:38.829Z,100982.28
2022-11-28T18:39:09.914Z,100978.28
2022-11-28T18:41:37.940Z,100983.88
2022-11-28T18:44:06.143Z,100978.78
2022-11-28T18:46:35.070Z,100973.41
2022-11-28T18:49:03.456Z,100974.72
2022-11-28T18:51:35.525Z,100946.34
2022-11-28T18:54:05.035Z,100948.78
2022-11-28T18:56:32.598Z,100950.63
2022-11-28T18:59:00.031Z,100955.50
2022-11-28T19:01:30.627Z,100939.50
2022-11-28T19:04:03.637Z,100947.50
2022-11-28T19:06:33.837Z,100940.22
2022-11-28T19:09:03.906Z,100939.72
2022-11-28T19:11:32.344Z,100944.09
2022-11-28T19:14:00.377Z,100936.72
2022-11-28T19:16:40.593Z,100932.88
2022-11-28T19:19:08.150Z,100929.81
2022-11-28T19:21:36.198Z,100938.78
2022-11-28T19:24:04.653Z,100932.00
2022-11-28T19:26:34.368Z,100934.63
2022-11-28T19:29:03.103Z,100924.16
2022-11-28T19:31:35.757Z,100922.47
2022-11-28T19:34:15.317Z,100912.34
2022-11-28T19:36:46.363Z,100923.22
2022-11-28T19:39:24.011Z,100906.59
2022-11-28T19:41:55.113Z,100912.28
2022-11-28T19:44:29.438Z,100914.97
2022-11-28T19:47:00.518Z,100915.94
2022-11-28T19:49:33.096Z,100902.97
2022-11-28T19:52:01.814Z,100905.16
2022-11-28T19:54:35.549Z,100912.44
2022-11-28T19:57:05.115Z,100903.13
2022-11-28T20:08:32.081Z,100892.34
2022-11-28T20:11:08.832Z,100890.59
2022-11-28T20:19:20.443Z,100891.84
2022-11-28T20:22:00.419Z,100897.53
2022-11-28T20:39:08.775Z,100882.75
2022-11-28T20:47:49.692Z,100891.25
2022-11-28T20:50:18.301Z,100892.81
2022-11-28T20:52:46.595Z,100883.19
2022-11-28T20:55:14.906Z,100877.66
2022-11-28T20:57:43.334Z,100877.59
2022-11-28T21:00:11.679Z,100867.31
2022-11-28T21:02:40.043Z,100864.78
2022-11-28T21:05:09.050Z,100871.13
2022-11-28T21:07:39.215Z,100865.09
2022-11-28T21:10:09.675Z,100869.09
2022-11-28T21:12:38.238Z,100867.22
2022-11-28T21:15:06.438Z,100866.19
2022-11-28T21:17:35.339Z,100866.34
2022-11-28T21:20:08.076Z,100862.53
2022-11-28T21:22:41.501Z,100851.47
2022-11-28T21:28:14.112Z,100839.06
2022-11-28T21:31:11.912Z,100846.41
2022-11-28T21:33:41.760Z,100854.06
2022-11-28T21:36:09.914Z,100851.22
2022-11-28T21:38:38.004Z,100832.22
2022-11-28T21:43:59.417Z,100835.81
2022-11-28T21:46:28.481Z,100840.56
2022-11-28T21:48:57.963Z,100833.44
2022-11-28T21:51:31.454Z,100830.31
2022-11-28T21:54:00.163Z,100833.44
2022-11-28T21:56:27.929Z,100825.34
2022-11-28T21:58:56.964Z,100818.31
2022-11-28T22:01:24.719Z,100820.38
2022-11-28T22:03:53.552Z,100820.75
2022-11-28T22:06:25.356Z,100819.88
2022-11-28T22:08:54.388Z,100819.72
2022-11-28T22:11:22.893Z,100813.31
2022-11-28T22:13:53.334Z,100813.47
2022-11-28T22:16:27.488Z,100814.91
2022-11-28T22:18:59.010Z,100808.88
2022-11-28T22:24:16.750Z,100811.56
2022-11-28T22:26:45.777Z,100811.88
2022-11-28T22:29:15.163Z,100815.75
2022-11-28T22:31:47.318Z,100811.72
2022-11-28T22:34:15.548Z,100812.44
2022-11-28T22:36:43.471Z,100818.84
2022-11-28T22:39:11.972Z,100803.50
2022-11-28T22:41:40.132Z,100819.16
2022-11-28T22:44:08.661Z,100795.91
2022-11-28T22:46:36.871Z,100800.91
2022-11-28T22:49:07.381Z,100808.66
2022-11-28T22:51:35.814Z,100796.84
2022-11-28T22:54:05.363Z,100799.75
2022-11-28T22:56:34.840Z,100797.00
2022-11-28T22:59:05.113Z,100800.28
2022-11-28T23:01:34.399Z,100806.97
2022-11-28T23:04:02.240Z,100799.38
2022-11-28T23:06:32.174Z,100799.53
2022-11-28T23:09:02.926Z,100806.34
2022-11-28T23:11:35.650Z,100805.56
2022-11-28T23:14:04.040Z,100807.94
2022-11-28T23:16:39.110Z,100803.72
2022-11-28T23:19:12.944Z,100808.47
2022-11-28T23:21:42.722Z,100803.56
2022-11-28T23:24:14.434Z,100803.34
2022-11-28T23:26:42.153Z,100786.41
2022-11-28T23:29:10.090Z,100783.75
2022-11-28T23:31:42.972Z,100788.28
2022-11-28T23:34:11.208Z,100792.00
2022-11-28T23:36:44.394Z,100797.38
2022-11-28T23:39:14.669Z,100790.03
2022-11-28T23:41:45.205Z,100783.53
2022-11-28T23:44:14.279Z,100786.41
2022-11-28T23:46:42.583Z,100787.72
2022-11-28T23:49:10.364Z,100791.94
2022-11-28T23:51:40.313Z,100791.00
2022-11-28T23:54:09.517Z,100791.53
2022-11-28T23:56:38.260Z,100788.78
2022-11-28T23:59:07.852Z,100792.09
